createdAt,value
2019-03-31T00:01:08.762Z,1022.37
2019-03-31T00:01:55.909Z,1022.37
2019-03-31T00:02:55.951Z,1022.37
2019-03-31T00:03:55.940Z,1022.36
2019-03-31T00:04:56.023Z,1022.32
2019-03-31T00:05:56.072Z,1022.33
2019-03-31T00:06:56.034Z,1022.34
2019-03-31T00:07:55.885Z,1022.31
2019-03-31T00:08:56.004Z,1022.33
2019-03-31T00:09:56.071Z,1022.36
2019-03-31T00:10:56.117Z,1022.33
2019-03-31T00:11:55.907Z,1022.31
2019-03-31T00:12:55.781Z,1022.36
2019-03-31T00:13:55.836Z,1022.37
2019-03-31T00:14:55.815Z,1022.34
2019-03-31T00:15:55.797Z,1022.36
2019-03-31T00:16:56.024Z,1022.31
2019-03-31T00:17:55.981Z,1022.35
2019-03-31T00:18:56.228Z,1022.39
2019-03-31T00:19:55.969Z,1022.38
2019-03-31T00:20:56.060Z,1022.37
2019-03-31T00:21:55.910Z,1022.34
2019-03-31T00:22:56.012Z,1022.37
2019-03-31T00:23:56.065Z,1022.37
2019-03-31T00:24:56.133Z,1022.38
2019-03-31T00:25:55.967Z,1022.38
2019-03-31T00:26:56.019Z,1022.39
2019-03-31T00:27:55.777Z,1022.38
2019-03-31T00:28:56.087Z,1022.39
2019-03-31T00:29:56.034Z,1022.39
2019-03-31T00:30:55.838Z,1022.41
2019-03-31T00:31:55.843Z,1022.42
2019-03-31T00:32:55.888Z,1022.42
2019-03-31T00:33:55.932Z,1022.47
2019-03-31T00:34:55.899Z,1022.47
2019-03-31T00:35:55.892Z,1022.52
2019-03-31T00:36:55.990Z,1022.57
2019-03-31T00:37:55.940Z,1022.62
2019-03-31T00:38:55.818Z,1022.56
2019-03-31T00:39:56.225Z,1022.58
2019-03-31T00:40:56.070Z,1022.59
2019-03-31T00:41:56.092Z,1022.52
2019-03-31T00:42:56.104Z,1022.57
2019-03-31T00:43:56.015Z,1022.58
2019-03-31T00:44:56.067Z,1022.62
2019-03-31T00:45:56.114Z,1022.64
2019-03-31T00:46:55.839Z,1022.62
2019-03-31T00:47:55.938Z,1022.59
2019-03-31T00:48:55.902Z,1022.55
2019-03-31T00:49:55.875Z,1022.6
2019-03-31T00:50:55.981Z,1022.56
2019-03-31T00:51:55.823Z,1022.58
2019-03-31T00:52:55.844Z,1022.55
2019-03-31T00:53:55.940Z,1022.57
2019-03-31T00:54:56.171Z,1022.57
2019-03-31T00:55:55.952Z,1022.56
2019-03-31T00:56:55.898Z,1022.57
2019-03-31T00:57:55.892Z,1022.58
2019-03-31T00:58:56.007Z,1022.56
2019-03-31T00:59:55.996Z,1022.54
2019-03-31T01:00:56.110Z,1022.54
2019-03-31T01:01:56.149Z,1022.53
2019-03-31T01:02:55.829Z,1022.5
2019-03-31T01:03:55.993Z,1022.47
2019-03-31T01:04:56.070Z,1022.46
2019-03-31T01:05:55.872Z,1022.43
2019-03-31T01:06:55.791Z,1022.45
2019-03-31T01:07:55.958Z,1022.46
2019-03-31T01:08:55.889Z,1022.42
2019-03-31T01:09:55.934Z,1022.41
2019-03-31T01:10:57.982Z,1022.4
2019-03-31T01:11:55.964Z,1022.34
2019-03-31T01:12:56.068Z,1022.33
2019-03-31T01:13:55.917Z,1022.34
2019-03-31T01:14:55.916Z,1022.36
2019-03-31T01:15:55.944Z,1022.35
2019-03-31T01:16:56.012Z,1022.34
2019-03-31T01:17:55.988Z,1022.34
2019-03-31T01:18:56.005Z,1022.31
2019-03-31T01:19:56.007Z,1022.3
2019-03-31T01:20:55.805Z,1022.3
2019-03-31T01:21:55.994Z,1022.3
2019-03-31T01:22:56.039Z,1022.33
2019-03-31T01:23:56.344Z,1022.3
2019-03-31T01:24:55.778Z,1022.3
2019-03-31T01:25:55.928Z,1022.33
2019-03-31T01:26:56.912Z,1022.36
2019-03-31T01:27:55.877Z,1022.35
2019-03-31T01:28:55.918Z,1022.34
2019-03-31T01:29:55.948Z,1022.36
2019-03-31T01:30:56.185Z,1022.34
2019-03-31T01:31:55.896Z,1022.37
2019-03-31T01:32:55.953Z,1022.38
2019-03-31T01:33:55.896Z,1022.42
2019-03-31T01:34:55.946Z,1022.42
2019-03-31T01:35:56.118Z,1022.44
2019-03-31T01:36:56.056Z,1022.46
2019-03-31T01:37:56.066Z,1022.44
2019-03-31T01:38:56.097Z,1022.45
2019-03-31T01:39:56.107Z,1022.45
2019-03-31T01:40:56.089Z,1022.47
2019-03-31T01:41:56.144Z,1022.47
2019-03-31T01:42:56.188Z,1022.46
2019-03-31T01:43:55.786Z,1022.45
2019-03-31T01:44:56.042Z,1022.43
2019-03-31T01:45:55.838Z,1022.43
2019-03-31T01:46:55.931Z,1022.45
2019-03-31T01:47:55.952Z,1022.45
2019-03-31T01:48:55.874Z,1022.42
2019-03-31T01:49:55.746Z,1022.44
2019-03-31T01:50:55.890Z,1022.43
2019-03-31T01:51:55.988Z,1022.46
2019-03-31T01:52:55.780Z,1022.47
2019-03-31T01:53:55.891Z,1022.47
2019-03-31T01:54:56.001Z,1022.44
2019-03-31T01:55:55.941Z,1022.45
2019-03-31T01:56:56.043Z,1022.44
2019-03-31T01:57:56.057Z,1022.47
2019-03-31T01:58:56.074Z,1022.45
2019-03-31T01:59:56.232Z,1022.46
2019-03-31T02:00:56.015Z,1022.47
2019-03-31T02:02:04.936Z,1022.46
2019-03-31T02:02:55.905Z,1022.45
2019-03-31T02:03:55.755Z,1022.45
2019-03-31T02:04:55.832Z,1022.49
2019-03-31T02:05:55.769Z,1022.49
2019-03-31T02:06:55.958Z,1022.47
2019-03-31T02:07:55.964Z,1022.48
2019-03-31T02:08:55.791Z,1022.52
2019-03-31T02:09:55.881Z,1022.5
2019-03-31T02:10:55.955Z,1022.52
2019-03-31T02:11:55.859Z,1022.5
2019-03-31T02:12:56.066Z,1022.49
2019-03-31T02:13:56.048Z,1022.49
2019-03-31T02:14:55.939Z,1022.49
2019-03-31T02:15:56.000Z,1022.47
2019-03-31T02:16:55.934Z,1022.43
2019-03-31T02:17:56.076Z,1022.46
2019-03-31T02:18:56.066Z,1022.44
2019-03-31T02:19:56.037Z,1022.42
2019-03-31T02:20:55.879Z,1022.41
2019-03-31T02:21:55.920Z,1022.4
2019-03-31T02:22:55.808Z,1022.42
2019-03-31T02:23:56.139Z,1022.43
2019-03-31T02:24:58.756Z,1022.39
2019-03-31T02:25:55.843Z,1022.4
2019-03-31T02:26:55.956Z,1022.4
2019-03-31T02:27:55.850Z,1022.41
2019-03-31T02:28:56.471Z,1022.38
2019-03-31T02:29:55.909Z,1022.36
2019-03-31T02:30:56.042Z,1022.38
2019-03-31T02:31:55.876Z,1022.41
2019-03-31T02:32:56.253Z,1022.41
2019-03-31T02:33:56.085Z,1022.42
2019-03-31T02:34:56.070Z,1022.41
2019-03-31T02:35:56.063Z,1022.42
2019-03-31T02:36:56.019Z,1022.42
2019-03-31T02:37:56.132Z,1022.41
2019-03-31T02:38:55.784Z,1022.4
2019-03-31T02:39:55.906Z,1022.36
2019-03-31T02:40:55.833Z,1022.38
2019-03-31T02:41:55.807Z,1022.32
2019-03-31T02:42:55.896Z,1022.34
2019-03-31T02:43:55.769Z,1022.35
2019-03-31T02:44:55.953Z,1022.4
2019-03-31T02:45:55.883Z,1022.39
2019-03-31T02:46:55.870Z,1022.37
2019-03-31T02:47:55.836Z,1022.39
2019-03-31T02:48:55.877Z,1022.42
2019-03-31T02:49:56.039Z,1022.4
2019-03-31T02:50:55.798Z,1022.36
2019-03-31T02:51:55.955Z,1022.4
2019-03-31T02:52:55.958Z,1022.4
2019-03-31T02:53:56.052Z,1022.37
2019-03-31T02:54:55.847Z,1022.36
2019-03-31T02:55:56.123Z,1022.38
2019-03-31T02:56:55.875Z,1022.36
2019-03-31T02:57:55.831Z,1022.33
2019-03-31T02:58:55.807Z,1022.35
2019-03-31T02:59:55.810Z,1022.33
2019-03-31T03:00:55.946Z,1022.36
2019-03-31T03:01:55.906Z,1022.38
2019-03-31T03:02:55.827Z,1022.35
2019-03-31T03:03:55.922Z,1022.34
2019-03-31T03:04:56.181Z,1022.32
2019-03-31T03:05:56.038Z,1022.3
2019-03-31T03:06:55.796Z,1022.34
2019-03-31T03:07:55.939Z,1022.34
2019-03-31T03:08:55.956Z,1022.35
2019-03-31T03:09:55.974Z,1022.36
2019-03-31T03:10:56.046Z,1022.35
2019-03-31T03:11:55.954Z,1022.34
2019-03-31T03:12:55.982Z,1022.37
2019-03-31T03:13:56.042Z,1022.37
2019-03-31T03:14:55.839Z,1022.35
2019-03-31T03:15:55.770Z,1022.38
2019-03-31T03:16:55.764Z,1022.37
2019-03-31T03:17:55.858Z,1022.4
2019-03-31T03:18:55.803Z,1022.37
2019-03-31T03:19:55.895Z,1022.36
2019-03-31T03:20:55.912Z,1022.37
2019-03-31T03:21:55.826Z,1022.35
2019-03-31T03:22:55.874Z,1022.33
2019-03-31T03:23:55.961Z,1022.35
2019-03-31T03:24:56.058Z,1022.35
2019-03-31T03:25:57.249Z,1022.35
2019-03-31T03:26:56.233Z,1022.38
2019-03-31T03:27:55.991Z,1022.34
2019-03-31T03:28:55.906Z,1022.35
2019-03-31T03:29:55.941Z,1022.35
2019-03-31T03:30:57.240Z,1022.39
2019-03-31T03:31:56.167Z,1022.4
2019-03-31T03:33:18.655Z,1022.41
2019-03-31T03:33:55.974Z,1022.41
2019-03-31T03:34:56.100Z,1022.38
2019-03-31T03:35:55.889Z,1022.39
2019-03-31T03:36:55.947Z,1022.44
2019-03-31T03:37:55.801Z,1022.46
2019-03-31T03:38:55.850Z,1022.42
2019-03-31T03:39:55.989Z,1022.43
2019-03-31T03:40:55.864Z,1022.42
2019-03-31T03:41:56.074Z,1022.42
2019-03-31T03:42:55.866Z,1022.4
2019-03-31T03:44:02.943Z,1022.4
2019-03-31T03:44:55.915Z,1022.44
2019-03-31T03:45:55.943Z,1022.45
2019-03-31T03:46:55.966Z,1022.46
2019-03-31T03:47:56.010Z,1022.49
2019-03-31T03:48:56.355Z,1022.46
2019-03-31T03:49:55.964Z,1022.43
2019-03-31T03:50:56.036Z,1022.44
2019-03-31T03:51:55.807Z,1022.41
2019-03-31T03:52:55.831Z,1022.4
2019-03-31T03:53:55.863Z,1022.41
2019-03-31T03:54:55.819Z,1022.42
2019-03-31T03:55:55.806Z,1022.44
2019-03-31T03:56:55.851Z,1022.44
2019-03-31T03:57:55.793Z,1022.46
2019-03-31T03:58:55.897Z,1022.45
2019-03-31T03:59:55.815Z,1022.46
2019-03-31T04:00:55.943Z,1022.48
2019-03-31T04:01:55.884Z,1022.47
2019-03-31T04:02:55.947Z,1022.45
2019-03-31T04:03:55.941Z,1022.45
2019-03-31T04:04:56.041Z,1022.44
2019-03-31T04:05:55.904Z,1022.4
2019-03-31T04:06:57.133Z,1022.43
2019-03-31T04:07:55.911Z,1022.4
2019-03-31T04:08:55.977Z,1022.37
2019-03-31T04:09:56.050Z,1022.36
2019-03-31T04:10:55.726Z,1022.4
2019-03-31T04:11:55.953Z,1022.35
2019-03-31T04:12:55.866Z,1022.34
2019-03-31T04:13:55.787Z,1022.37
2019-03-31T04:14:55.846Z,1022.33
2019-03-31T04:15:55.926Z,1022.34
2019-03-31T04:16:55.760Z,1022.37
2019-03-31T04:17:55.835Z,1022.36
2019-03-31T04:18:55.873Z,1022.31
2019-03-31T04:19:55.947Z,1022.33
2019-03-31T04:20:55.949Z,1022.36
2019-03-31T04:21:55.915Z,1022.32
2019-03-31T04:22:56.095Z,1022.33
2019-03-31T04:23:56.017Z,1022.37
2019-03-31T04:24:55.934Z,1022.35
2019-03-31T04:25:56.032Z,1022.38
2019-03-31T04:26:55.998Z,1022.34
2019-03-31T04:27:55.961Z,1022.33
2019-03-31T04:28:56.095Z,1022.36
2019-03-31T04:29:55.831Z,1022.34
2019-03-31T04:30:55.724Z,1022.33
2019-03-31T04:31:55.880Z,1022.3
2019-03-31T04:32:55.740Z,1022.3
2019-03-31T04:33:55.775Z,1022.34
2019-03-31T04:34:55.784Z,1022.35
2019-03-31T04:35:55.785Z,1022.3
2019-03-31T04:36:55.770Z,1022.32
2019-03-31T04:37:55.979Z,1022.33
2019-03-31T04:39:00.985Z,1022.34
2019-03-31T04:39:55.948Z,1022.36
2019-03-31T04:40:55.847Z,1022.35
2019-03-31T04:41:55.881Z,1022.34
2019-03-31T04:42:55.977Z,1022.35
2019-03-31T04:43:55.964Z,1022.33
2019-03-31T04:44:55.939Z,1022.32
2019-03-31T04:45:55.946Z,1022.34
2019-03-31T04:46:56.039Z,1022.3
2019-03-31T04:47:56.104Z,1022.32
2019-03-31T04:48:55.794Z,1022.33
2019-03-31T04:49:55.811Z,1022.34
2019-03-31T04:50:55.745Z,1022.34
2019-03-31T04:51:55.862Z,1022.4
2019-03-31T04:52:55.787Z,1022.42
2019-03-31T04:53:55.782Z,1022.43
2019-03-31T04:54:55.925Z,1022.42
2019-03-31T04:55:55.830Z,1022.42
2019-03-31T04:56:55.851Z,1022.4
2019-03-31T04:57:55.945Z,1022.39
2019-03-31T04:58:56.461Z,1022.37
2019-03-31T04:59:55.957Z,1022.39
2019-03-31T05:00:56.059Z,1022.37
2019-03-31T05:01:55.999Z,1022.32
2019-03-31T05:02:55.959Z,1022.31
2019-03-31T05:04:05.624Z,1022.32
2019-03-31T05:04:55.931Z,1022.31
2019-03-31T05:05:56.042Z,1022.28
2019-03-31T05:06:55.832Z,1022.3
2019-03-31T05:07:55.697Z,1022.31
2019-03-31T05:08:56.014Z,1022.34
2019-03-31T05:09:55.826Z,1022.33
2019-03-31T05:10:55.728Z,1022.38
2019-03-31T05:11:55.877Z,1022.35
2019-03-31T05:12:55.770Z,1022.35
2019-03-31T05:13:55.814Z,1022.36
2019-03-31T05:14:55.879Z,1022.38
2019-03-31T05:15:55.800Z,1022.4
2019-03-31T05:16:55.842Z,1022.42
2019-03-31T05:17:55.856Z,1022.44
2019-03-31T05:18:56.037Z,1022.46
2019-03-31T05:19:56.398Z,1022.47
2019-03-31T05:20:56.403Z,1022.5
2019-03-31T05:21:55.894Z,1022.41
2019-03-31T05:22:55.918Z,1022.44
2019-03-31T05:23:55.947Z,1022.4
2019-03-31T05:24:55.813Z,1022.44
2019-03-31T05:25:55.720Z,1022.39
2019-03-31T05:26:55.870Z,1022.4
2019-03-31T05:27:55.804Z,1022.34
2019-03-31T05:28:55.783Z,1022.43
2019-03-31T05:29:55.783Z,1022.43
2019-03-31T05:30:55.758Z,1022.45
2019-03-31T05:31:55.850Z,1022.45
2019-03-31T05:32:55.839Z,1022.43
2019-03-31T05:33:55.830Z,1022.44
2019-03-31T05:34:55.885Z,1022.48
2019-03-31T05:35:55.884Z,1022.47
2019-03-31T05:36:55.989Z,1022.48
2019-03-31T05:37:55.898Z,1022.46
2019-03-31T05:38:56.016Z,1022.45
2019-03-31T05:39:55.951Z,1022.46
2019-03-31T05:40:56.009Z,1022.46
2019-03-31T05:41:56.004Z,1022.46
2019-03-31T05:42:56.067Z,1022.49
2019-03-31T05:44:06.264Z,1022.51
2019-03-31T05:44:55.737Z,1022.51
2019-03-31T05:45:55.682Z,1022.56
2019-03-31T05:46:55.807Z,1022.55
2019-03-31T05:47:55.735Z,1022.6
2019-03-31T05:48:55.819Z,1022.56
2019-03-31T05:49:55.777Z,1022.52
2019-03-31T05:50:55.812Z,1022.57
2019-03-31T05:51:55.810Z,1022.53
2019-03-31T05:52:55.951Z,1022.54
2019-03-31T05:53:55.839Z,1022.54
2019-03-31T05:54:55.814Z,1022.57
2019-03-31T05:55:55.983Z,1022.6
2019-03-31T05:56:55.860Z,1022.61
2019-03-31T05:57:55.888Z,1022.63
2019-03-31T05:58:56.048Z,1022.65
2019-03-31T05:59:55.895Z,1022.66
2019-03-31T06:00:55.823Z,1022.65
2019-03-31T06:01:55.793Z,1022.69
2019-03-31T06:02:55.812Z,1022.68
2019-03-31T06:03:55.827Z,1022.66
2019-03-31T06:04:55.768Z,1022.7
2019-03-31T06:05:55.916Z,1022.73
2019-03-31T06:06:55.945Z,1022.74
2019-03-31T06:07:55.789Z,1022.73
2019-03-31T06:08:55.800Z,1022.76
2019-03-31T06:09:55.910Z,1022.75
2019-03-31T06:10:55.822Z,1022.77
2019-03-31T06:11:55.867Z,1022.77
2019-03-31T06:12:55.933Z,1022.77
2019-03-31T06:13:55.967Z,1022.77
2019-03-31T06:14:55.886Z,1022.78
2019-03-31T06:15:55.883Z,1022.76
2019-03-31T06:16:56.038Z,1022.76
2019-03-31T06:17:55.928Z,1022.76
2019-03-31T06:18:55.928Z,1022.76
2019-03-31T06:19:55.919Z,1022.8
2019-03-31T06:20:55.721Z,1022.8
2019-03-31T06:21:55.683Z,1022.81
2019-03-31T06:22:55.874Z,1022.81
2019-03-31T06:23:55.715Z,1022.83
2019-03-31T06:24:55.894Z,1022.83
2019-03-31T06:25:55.842Z,1022.84
2019-03-31T06:26:55.730Z,1022.79
2019-03-31T06:27:55.764Z,1022.84
2019-03-31T06:28:55.853Z,1022.82
2019-03-31T06:29:55.829Z,1022.8
2019-03-31T06:30:55.809Z,1022.83
2019-03-31T06:31:55.793Z,1022.86
2019-03-31T06:32:55.851Z,1022.91
2019-03-31T06:33:55.844Z,1022.92
2019-03-31T06:34:55.888Z,1022.93
2019-03-31T06:35:55.975Z,1022.88
2019-03-31T06:36:55.899Z,1022.89
2019-03-31T06:37:55.737Z,1022.94
2019-03-31T06:38:55.717Z,1022.9
2019-03-31T06:39:55.735Z,1022.91
2019-03-31T06:40:55.808Z,1022.9
2019-03-31T06:41:55.772Z,1022.9
2019-03-31T06:42:55.734Z,1022.89
2019-03-31T06:43:55.743Z,1022.9
2019-03-31T06:44:55.793Z,1022.89
2019-03-31T06:45:56.041Z,1022.9
2019-03-31T06:46:55.892Z,1022.86
2019-03-31T06:47:55.814Z,1022.89
2019-03-31T06:48:56.004Z,1022.9
2019-03-31T06:49:55.980Z,1022.9
2019-03-31T06:50:55.853Z,1022.88
2019-03-31T06:51:55.863Z,1022.88
2019-03-31T06:52:55.894Z,1022.88
2019-03-31T06:53:55.962Z,1022.89
2019-03-31T06:54:55.906Z,1022.9
2019-03-31T06:55:55.659Z,1022.91
2019-03-31T06:56:55.695Z,1022.9
2019-03-31T06:57:55.661Z,1022.93
2019-03-31T06:58:55.688Z,1022.94
2019-03-31T06:59:55.792Z,1022.93
2019-03-31T07:00:55.696Z,1022.95
2019-03-31T07:01:55.822Z,1022.96
2019-03-31T07:02:55.844Z,1022.96
2019-03-31T07:03:55.742Z,1022.95
2019-03-31T07:05:02.138Z,1023
2019-03-31T07:05:55.784Z,1023.02
2019-03-31T07:06:55.792Z,1022.98
2019-03-31T07:07:55.841Z,1022.98
2019-03-31T07:08:55.833Z,1023.01
2019-03-31T07:09:55.930Z,1022.99
2019-03-31T07:10:55.825Z,1022.98
2019-03-31T07:11:55.903Z,1023
2019-03-31T07:12:56.016Z,1023.01
2019-03-31T07:13:55.881Z,1023
2019-03-31T07:14:55.818Z,1022.99
2019-03-31T07:15:55.711Z,1023.03
2019-03-31T07:16:55.719Z,1022.96
2019-03-31T07:17:55.701Z,1023
2019-03-31T07:18:55.861Z,1023.02
2019-03-31T07:19:55.778Z,1023
2019-03-31T07:20:55.764Z,1022.98
2019-03-31T07:21:55.844Z,1023.01
2019-03-31T07:22:55.788Z,1022.99
2019-03-31T07:23:55.804Z,1022.98
2019-03-31T07:24:55.869Z,1022.95
2019-03-31T07:25:55.820Z,1022.98
2019-03-31T07:26:55.828Z,1022.94
2019-03-31T07:27:55.855Z,1022.96
2019-03-31T07:28:56.110Z,1022.95
2019-03-31T07:29:56.206Z,1022.96
2019-03-31T07:30:59.724Z,1022.96
2019-03-31T07:31:55.896Z,1022.94
2019-03-31T07:32:56.022Z,1022.94
2019-03-31T07:33:55.602Z,1022.92
2019-03-31T07:34:55.650Z,1022.94
2019-03-31T07:35:55.829Z,1022.91
2019-03-31T07:36:55.651Z,1022.94
2019-03-31T07:37:55.828Z,1022.94
2019-03-31T07:38:55.757Z,1022.94
2019-03-31T07:39:56.028Z,1022.94
2019-03-31T07:40:56.660Z,1022.91
2019-03-31T07:41:56.242Z,1022.91
2019-03-31T07:42:56.003Z,1022.93
2019-03-31T07:43:55.779Z,1022.93
2019-03-31T07:44:55.885Z,1022.92
2019-03-31T07:45:56.292Z,1022.92
2019-03-31T07:46:55.823Z,1022.94
2019-03-31T07:47:55.853Z,1022.94
2019-03-31T07:48:55.897Z,1022.96
2019-03-31T07:49:55.883Z,1022.9
2019-03-31T07:50:56.195Z,1022.98
2019-03-31T07:51:55.642Z,1022.96
2019-03-31T07:52:55.717Z,1022.97
2019-03-31T07:53:57.812Z,1022.94
2019-03-31T07:54:55.697Z,1022.93
2019-03-31T07:55:55.725Z,1022.95
2019-03-31T07:56:55.717Z,1022.91
2019-03-31T07:57:55.752Z,1022.92
2019-03-31T07:58:56.238Z,1022.9
2019-03-31T07:59:57.110Z,1022.91
2019-03-31T08:00:55.870Z,1022.88
2019-03-31T08:01:55.833Z,1022.89
2019-03-31T08:02:55.839Z,1022.92
2019-03-31T08:03:55.833Z,1022.9
2019-03-31T08:04:55.818Z,1022.91
2019-03-31T08:05:55.965Z,1022.92
2019-03-31T08:06:55.910Z,1022.9
2019-03-31T08:07:55.873Z,1022.94
2019-03-31T08:08:55.866Z,1022.91
2019-03-31T08:09:55.986Z,1022.94
2019-03-31T08:10:55.700Z,1022.94
2019-03-31T08:11:55.877Z,1022.92
2019-03-31T08:12:55.830Z,1022.91
2019-03-31T08:13:55.712Z,1022.93
2019-03-31T08:14:55.819Z,1022.93
2019-03-31T08:15:55.684Z,1022.93
2019-03-31T08:16:55.689Z,1022.93
2019-03-31T08:17:55.817Z,1022.94
2019-03-31T08:18:55.735Z,1022.94
2019-03-31T08:19:55.834Z,1022.97
2019-03-31T08:20:55.795Z,1022.96
2019-03-31T08:21:55.808Z,1022.94
2019-03-31T08:22:57.390Z,1022.94
2019-03-31T08:23:55.807Z,1022.98
2019-03-31T08:24:55.912Z,1022.97
2019-03-31T08:25:55.838Z,1022.95
2019-03-31T08:26:55.874Z,1022.96
2019-03-31T08:27:55.648Z,1022.94
2019-03-31T08:28:58.810Z,1022.93
2019-03-31T08:30:01.529Z,1022.95
2019-03-31T08:30:55.677Z,1022.92
2019-03-31T08:31:55.722Z,1022.93
2019-03-31T08:32:55.750Z,1022.93
2019-03-31T08:33:55.721Z,1022.91
2019-03-31T08:34:55.718Z,1022.93
2019-03-31T08:35:55.758Z,1022.95
2019-03-31T08:36:55.864Z,1022.94
2019-03-31T08:37:55.825Z,1022.96
2019-03-31T08:38:55.799Z,1022.95
2019-03-31T08:39:55.827Z,1022.96
2019-03-31T08:40:55.915Z,1022.93
2019-03-31T08:41:55.917Z,1022.93
2019-03-31T08:42:56.061Z,1022.97
2019-03-31T08:43:56.001Z,1022.93
2019-03-31T08:44:55.872Z,1022.93
2019-03-31T08:45:55.864Z,1022.95
2019-03-31T08:46:55.660Z,1022.93
2019-03-31T08:47:55.755Z,1022.92
2019-03-31T08:48:55.810Z,1022.93
2019-03-31T08:49:55.801Z,1022.91
2019-03-31T08:50:55.677Z,1022.95
2019-03-31T08:51:55.659Z,1022.92
2019-03-31T08:52:55.825Z,1022.93
2019-03-31T08:53:55.710Z,1022.91
2019-03-31T08:54:55.986Z,1022.9
2019-03-31T08:55:56.840Z,1022.94
2019-03-31T08:56:55.735Z,1022.88
2019-03-31T08:57:55.814Z,1022.93
2019-03-31T08:58:56.025Z,1022.92
2019-03-31T08:59:55.815Z,1022.9
2019-03-31T09:00:55.766Z,1022.9
2019-03-31T09:01:55.789Z,1022.9
2019-03-31T09:02:55.909Z,1022.9
2019-03-31T09:03:55.889Z,1022.88
2019-03-31T09:04:55.855Z,1022.82
2019-03-31T09:06:02.841Z,1022.85
2019-03-31T09:06:55.720Z,1022.81
2019-03-31T09:07:55.658Z,1022.82
2019-03-31T09:08:55.779Z,1022.81
2019-03-31T09:09:55.671Z,1022.79
2019-03-31T09:10:55.681Z,1022.78
2019-03-31T09:11:55.840Z,1022.74
2019-03-31T09:12:55.714Z,1022.77
2019-03-31T09:13:55.901Z,1022.74
2019-03-31T09:14:55.761Z,1022.73
2019-03-31T09:15:55.844Z,1022.71
2019-03-31T09:16:55.746Z,1022.72
2019-03-31T09:17:55.785Z,1022.75
2019-03-31T09:18:55.911Z,1022.77
2019-03-31T09:19:55.818Z,1022.75
2019-03-31T09:20:55.803Z,1022.77
2019-03-31T09:21:56.544Z,1022.75
2019-03-31T09:22:55.835Z,1022.78
2019-03-31T09:23:55.941Z,1022.76
2019-03-31T09:24:55.957Z,1022.76
2019-03-31T09:25:55.599Z,1022.77
2019-03-31T09:26:55.646Z,1022.72
2019-03-31T09:27:55.745Z,1022.76
2019-03-31T09:28:55.616Z,1022.75
2019-03-31T09:29:55.797Z,1022.75
2019-03-31T09:30:55.660Z,1022.75
2019-03-31T09:31:55.729Z,1022.73
2019-03-31T09:32:55.675Z,1022.78
2019-03-31T09:33:55.695Z,1022.73
2019-03-31T09:34:55.875Z,1022.79
2019-03-31T09:35:55.740Z,1022.76
2019-03-31T09:36:55.778Z,1022.75
2019-03-31T09:37:55.913Z,1022.76
2019-03-31T09:38:56.118Z,1022.75
2019-03-31T09:39:55.773Z,1022.73
2019-03-31T09:40:55.797Z,1022.72
2019-03-31T09:41:55.985Z,1022.73
2019-03-31T09:42:55.825Z,1022.72
2019-03-31T09:43:55.698Z,1022.78
2019-03-31T09:44:55.726Z,1022.76
2019-03-31T09:45:55.676Z,1022.74
2019-03-31T09:46:55.660Z,1022.71
2019-03-31T09:47:55.914Z,1022.73
2019-03-31T09:48:56.969Z,1022.72
2019-03-31T09:49:55.705Z,1022.68
2019-03-31T09:50:56.858Z,1022.68
2019-03-31T09:51:55.746Z,1022.7
2019-03-31T09:52:55.857Z,1022.66
2019-03-31T09:53:55.764Z,1022.68
2019-03-31T09:54:55.760Z,1022.66
2019-03-31T09:55:55.886Z,1022.67
2019-03-31T09:56:55.865Z,1022.65
2019-03-31T09:57:55.891Z,1022.65
2019-03-31T09:58:55.824Z,1022.61
2019-03-31T09:59:56.199Z,1022.61
2019-03-31T10:00:55.844Z,1022.59
2019-03-31T10:01:55.847Z,1022.6
2019-03-31T10:02:55.763Z,1022.57
2019-03-31T10:03:55.679Z,1022.57
2019-03-31T10:04:55.668Z,1022.57
2019-03-31T10:06:11.384Z,1022.55
2019-03-31T10:06:55.787Z,1022.52
2019-03-31T10:07:55.784Z,1022.53
2019-03-31T10:08:55.643Z,1022.52
2019-03-31T10:09:55.696Z,1022.47
2019-03-31T10:10:55.776Z,1022.48
2019-03-31T10:11:55.862Z,1022.51
2019-03-31T10:12:55.699Z,1022.52
2019-03-31T10:13:55.725Z,1022.52
2019-03-31T10:14:55.902Z,1022.49
2019-03-31T10:15:55.827Z,1022.49
2019-03-31T10:16:55.923Z,1022.46
2019-03-31T10:17:55.882Z,1022.46
2019-03-31T10:18:55.832Z,1022.4
2019-03-31T10:19:55.828Z,1022.41
2019-03-31T10:20:55.826Z,1022.46
2019-03-31T10:21:55.916Z,1022.36
2019-03-31T10:22:55.720Z,1022.37
2019-03-31T10:23:55.763Z,1022.35
2019-03-31T10:24:55.668Z,1022.36
2019-03-31T10:25:55.753Z,1022.29
2019-03-31T10:26:55.844Z,1022.3
2019-03-31T10:27:55.696Z,1022.31
2019-03-31T10:28:55.783Z,1022.31
2019-03-31T10:29:56.432Z,1022.29
2019-03-31T10:30:55.848Z,1022.27
2019-03-31T10:31:55.843Z,1022.26
2019-03-31T10:32:55.900Z,1022.29
2019-03-31T10:33:55.879Z,1022.26
2019-03-31T10:34:55.795Z,1022.22
2019-03-31T10:35:55.817Z,1022.2
2019-03-31T10:36:55.898Z,1022.2
2019-03-31T10:37:55.918Z,1022.22
2019-03-31T10:38:55.838Z,1022.24
2019-03-31T10:39:55.866Z,1022.2
2019-03-31T10:40:55.564Z,1022.17
2019-03-31T10:41:55.750Z,1022.19
2019-03-31T10:42:55.855Z,1022.17
2019-03-31T10:43:57.577Z,1022.12
2019-03-31T10:44:55.748Z,1022.13
2019-03-31T10:45:55.651Z,1022.15
2019-03-31T10:46:58.779Z,1022.15
2019-03-31T10:47:55.691Z,1022.12
2019-03-31T10:48:55.873Z,1022.13
2019-03-31T10:49:55.708Z,1022.11
2019-03-31T10:50:55.687Z,1022.09
2019-03-31T10:51:55.858Z,1022.07
2019-03-31T10:52:55.754Z,1022.02
2019-03-31T10:53:55.774Z,1022.05
2019-03-31T10:54:55.741Z,1022.08
2019-03-31T10:55:55.746Z,1022.04
2019-03-31T10:56:56.049Z,1022.04
2019-03-31T10:57:55.878Z,1022.05
2019-03-31T10:58:55.593Z,1022.01
2019-03-31T10:59:55.618Z,1022.01
2019-03-31T11:00:55.732Z,1021.99
2019-03-31T11:01:55.703Z,1021.94
2019-03-31T11:02:55.636Z,1022.01
2019-03-31T11:03:55.717Z,1021.98
2019-03-31T11:04:55.761Z,1021.95
2019-03-31T11:05:55.783Z,1021.96
2019-03-31T11:07:03.685Z,1021.9
2019-03-31T11:07:55.710Z,1021.87
2019-03-31T11:08:55.792Z,1021.91
2019-03-31T11:09:55.717Z,1021.93
2019-03-31T11:10:55.714Z,1021.91
2019-03-31T11:11:55.764Z,1021.93
2019-03-31T11:12:55.869Z,1021.99
2019-03-31T11:13:55.786Z,1021.94
2019-03-31T11:14:55.800Z,1021.98
2019-03-31T11:15:57.861Z,1021.99
2019-03-31T11:16:55.796Z,1021.98
2019-03-31T11:17:55.841Z,1021.94
2019-03-31T11:18:55.553Z,1021.93
2019-03-31T11:19:55.615Z,1021.92
2019-03-31T11:20:55.714Z,1021.96
2019-03-31T11:21:55.617Z,1021.93
2019-03-31T11:22:55.760Z,1021.9
2019-03-31T11:23:55.632Z,1021.94
2019-03-31T11:24:55.745Z,1021.9
2019-03-31T11:25:55.810Z,1021.89
2019-03-31T11:26:55.949Z,1021.92
2019-03-31T11:27:56.039Z,1021.9
2019-03-31T11:28:55.771Z,1021.91
2019-03-31T11:29:55.725Z,1021.89
2019-03-31T11:30:56.126Z,1021.87
2019-03-31T11:31:55.841Z,1021.93
2019-03-31T11:32:55.785Z,1021.89
2019-03-31T11:33:55.817Z,1021.91
2019-03-31T11:34:55.822Z,1021.87
2019-03-31T11:35:55.699Z,1021.86
2019-03-31T11:36:55.698Z,1021.86
2019-03-31T11:37:55.695Z,1021.84
2019-03-31T11:38:55.625Z,1021.85
2019-03-31T11:39:55.611Z,1021.83
2019-03-31T11:40:55.642Z,1021.82
2019-03-31T11:41:55.662Z,1021.79
2019-03-31T11:42:55.656Z,1021.83
2019-03-31T11:43:55.823Z,1021.81
2019-03-31T11:44:55.700Z,1021.78
2019-03-31T11:45:55.637Z,1021.81
2019-03-31T11:46:55.722Z,1021.77
2019-03-31T11:47:55.811Z,1021.74
2019-03-31T11:48:56.126Z,1021.72
2019-03-31T11:49:55.758Z,1021.75
2019-03-31T11:50:55.775Z,1021.75
2019-03-31T11:51:55.781Z,1021.7
2019-03-31T11:52:55.787Z,1021.7
2019-03-31T11:53:55.866Z,1021.7
2019-03-31T11:54:55.686Z,1021.68
2019-03-31T11:55:55.565Z,1021.68
2019-03-31T11:56:55.682Z,1021.7
2019-03-31T11:57:55.605Z,1021.7
2019-03-31T11:58:55.625Z,1021.68
2019-03-31T11:59:56.019Z,1021.66
2019-03-31T12:00:55.648Z,1021.66
2019-03-31T12:01:55.742Z,1021.65
2019-03-31T12:02:55.671Z,1021.66
2019-03-31T12:03:55.662Z,1021.63
2019-03-31T12:04:55.952Z,1021.62
2019-03-31T12:05:55.829Z,1021.58
2019-03-31T12:06:55.696Z,1021.57
2019-03-31T12:07:55.776Z,1021.6
2019-03-31T12:08:55.739Z,1021.61